Time,TemperatureF,DewpointF,PressureIn,WindDirection,WindDirectionDegrees,WindSpeedMPH,WindSpeedGustMPH,Humidity,HourlyPrecipIn,Conditions,Clouds,dailyrainin,SoftwareType,DateUTC
2013-09-12 00:01:00,71.2,68.7,30.16,South,188,0.0,0.0,92,0.00,,,0.01,meteohub,2013-09-12 04:01:00,
2013-09-12 00:02:00,71.2,68.7,30.16,South,188,0.0,0.0,92,0.00,,,0.01,meteohub,2013-09-12 04:02:00,
2013-09-12 00:07:00,71.2,68.7,30.16,South,188,0.0,0.0,92,0.00,,,0.00,meteohub,2013-09-12 04:07:00,
2013-09-12 00:12:00,71.2,68.7,30.16,South,188,0.0,0.0,92,0.00,,,0.00,meteohub,2013-09-12 04:12:00,
2013-09-12 00:17:00,71.1,68.5,30.15,South,188,0.0,0.0,92,0.00,,,0.00,meteohub,2013-09-12 04:17:00,
2013-09-12 00:22:00,71.1,68.5,30.15,South,188,0.0,0.0,92,0.00,,,0.00,meteohub,2013-09-12 04:22:00,
2013-09-12 00:27:00,71.1,68.5,30.15,South,188,0.0,0.0,92,0.00,,,0.00,meteohub,2013-09-12 04:27:00,
2013-09-12 00:32:00,70.9,68.4,30.15,SW,221,0.0,0.0,92,0.00,,,0.00,meteohub,2013-09-12 04:32:00,
2013-09-12 00:37:00,71.1,68.5,30.15,South,172,0.0,1.0,92,0.00,,,0.00,meteohub,2013-09-12 04:37:00,
2013-09-12 00:42:00,71.1,68.5,30.14,SSW,212,0.0,2.0,92,0.00,,,0.00,meteohub,2013-09-12 04:42:00,
2013-09-12 00:47:00,71.2,68.7,30.14,West,262,0.0,2.0,92,0.00,,,0.00,meteohub,2013-09-12 04:47:00,
2013-09-12 00:52:00,71.2,68.7,30.14,West,260,0.0,1.0,92,0.00,,,0.00,meteohub,2013-09-12 04:52:00,
2013-09-12 00:57:00,71.4,68.9,30.14,SSE,155,0.0,1.0,92,0.00,,,0.00,meteohub,2013-09-12 04:57:00,
2013-09-12 01:02:00,71.4,68.9,30.14,SSE,155,0.0,1.0,92,0.00,,,0.00,meteohub,2013-09-12 05:02:00,
2013-09-12 01:07:00,71.2,68.7,30.14,SSE,150,0.0,1.0,92,0.00,,,0.00,meteohub,2013-09-12 05:07:00,
2013-09-12 01:12:00,71.2,68.7,30.14,WSW,240,0.0,1.0,92,0.00,,,0.00,meteohub,2013-09-12 05:12:00,
2013-09-12 01:17:00,71.2,68.7,30.14,WSW,240,0.0,1.0,92,0.00,,,0.00,meteohub,2013-09-12 05:17:00,
2013-09-12 01:22:00,71.2,68.7,30.13,East,98,1.0,1.0,92,0.00,,,0.00,meteohub,2013-09-12 05:22:00,
2013-09-12 01:27:00,71.2,68.7,30.13,ESE,113,0.0,2.0,92,0.00,,,0.00,meteohub,2013-09-12 05:27:00,
2013-09-12 01:32:00,71.2,68.7,30.13,ESE,113,0.0,2.0,92,0.00,,,0.00,meteohub,2013-09-12 05:32:00,
2013-09-12 01:37:00,71.1,68.5,30.13,ESE,117,0.0,2.0,92,0.00,,,0.00,meteohub,2013-09-12 05:37:00,
2013-09-12 01:42:00,70.9,68.4,30.12,SE,128,0.0,1.0,92,0.00,,,0.00,meteohub,2013-09-12 05:42:00,
2013-09-12 01:47:00,70.9,68.4,30.12,ESE,123,1.0,2.0,92,0.00,,,0.00,meteohub,2013-09-12 05:47:00,
2013-09-12 01:52:00,70.7,68.2,30.12,SE,131,0.0,2.0,92,0.00,,,0.00,meteohub,2013-09-12 05:52:00,
2013-09-12 01:57:00,70.7,68.2,30.12,SE,136,0.0,2.0,92,0.00,,,0.00,meteohub,2013-09-12 05:57:00,
2013-09-12 02:02:00,70.5,68.0,30.12,SE,136,0.0,2.0,92,0.00,,,0.00,meteohub,2013-09-12 06:02:00,
2013-09-12 02:07:00,70.5,68.0,30.12,SE,128,0.0,2.0,92,0.00,,,0.00,meteohub,2013-09-12 06:07:00,
2013-09-12 02:12:00,70.5,68.0,30.12,SE,129,0.0,1.0,92,0.00,,,0.00,meteohub,2013-09-12 06:12:00,
2013-09-12 02:17:00,70.5,68.4,30.12,SE,125,0.0,1.0,93,0.00,,,0.00,meteohub,2013-09-12 06:17:00,
2013-09-12 02:22:00,70.3,67.8,30.12,SE,129,0.0,1.0,92,0.00,,,0.00,meteohub,2013-09-12 06:22:00,
2013-09-12 02:27:00,70.3,68.2,30.12,WSW,249,0.0,1.0,93,0.00,,,0.00,meteohub,2013-09-12 06:27:00,
2013-09-12 02:32:00,70.3,68.2,30.12,WSW,240,0.0,1.0,93,0.00,,,0.00,meteohub,2013-09-12 06:32:00,
2013-09-12 02:37:00,70.2,68.0,30.12,WSW,241,0.0,0.0,93,0.00,,,0.00,meteohub,2013-09-12 06:37:00,
2013-09-12 02:42:00,70.2,68.0,30.12,WSW,240,0.0,0.0,93,0.00,,,0.00,meteohub,2013-09-12 06:42:00,
2013-09-12 02:47:00,70.2,68.0,30.12,WSW,240,0.0,0.0,93,0.00,,,0.00,meteohub,2013-09-12 06:47:00,
2013-09-12 02:53:00,70.2,68.0,30.11,SSW,194,0.0,1.0,93,0.00,,,0.00,meteohub,2013-09-12 06:53:00,
2013-09-12 02:58:00,70.0,67.8,30.12,SE,142,0.0,1.0,93,0.00,,,0.00,meteohub,2013-09-12 06:58:00,
2013-09-12 03:03:00,70.0,67.8,30.12,West,264,0.0,2.0,93,0.00,,,0.00,meteohub,2013-09-12 07:03:00,
2013-09-12 03:08:00,70.0,67.8,30.12,WNW,296,0.0,2.0,93,0.00,,,0.00,meteohub,2013-09-12 07:08:00,
2013-09-12 03:13:00,70.0,67.8,30.12,WNW,296,0.0,1.0,93,0.00,,,0.00,meteohub,2013-09-12 07:13:00,
2013-09-12 03:18:00,70.0,67.8,30.12,WNW,297,0.0,0.0,93,0.00,,,0.00,meteohub,2013-09-12 07:18:00,
2013-09-12 03:23:00,70.0,67.8,30.12,West,277,0.0,1.0,93,0.00,,,0.00,meteohub,2013-09-12 07:23:00,
2013-09-12 03:28:00,70.0,67.8,30.12,ENE,63,0.0,2.0,93,0.00,,,0.00,meteohub,2013-09-12 07:28:00,
2013-09-12 03:33:00,70.0,67.8,30.12,ENE,70,0.0,2.0,93,0.00,,,0.00,meteohub,2013-09-12 07:33:00,
2013-09-12 03:38:00,70.0,67.8,30.12,ESE,113,0.0,2.0,93,0.00,,,0.00,meteohub,2013-09-12 07:38:00,
2013-09-12 03:43:00,70.0,67.8,30.12,SW,229,0.0,1.0,93,0.00,,,0.00,meteohub,2013-09-12 07:43:00,
2013-09-12 03:48:00,70.0,67.8,30.12,WSW,253,0.0,1.0,93,0.00,,,0.00,meteohub,2013-09-12 07:48:00,
2013-09-12 03:53:00,70.0,67.8,30.12,WSW,253,0.0,1.0,93,0.00,,,0.00,meteohub,2013-09-12 07:53:00,
2013-09-12 03:58:00,70.0,67.8,30.12,WSW,252,0.0,1.0,93,0.00,,,0.00,meteohub,2013-09-12 07:58:00,
2013-09-12 04:03:00,70.0,67.8,30.12,WSW,256,0.0,1.0,93,0.00,,,0.00,meteohub,2013-09-12 08:03:00,
2013-09-12 04:08:00,70.0,67.8,30.12,WSW,256,0.0,2.0,93,0.00,,,0.00,meteohub,2013-09-12 08:08:00,
2013-09-12 04:13:00,70.0,67.8,30.12,South,169,0.0,2.0,93,0.00,,,0.00,meteohub,2013-09-12 08:13:00,
2013-09-12 04:18:00,69.8,67.6,30.11,South,169,0.0,1.0,93,0.00,,,0.00,meteohub,2013-09-12 08:18:00,
2013-09-12 04:23:00,69.8,68.0,30.12,SW,218,0.0,1.0,94,0.00,,,0.00,meteohub,2013-09-12 08:23:00,
2013-09-12 04:28:00,70.0,68.2,30.12,West,276,1.0,1.0,94,0.00,,,0.00,meteohub,2013-09-12 08:28:00,
2013-09-12 04:33:00,70.0,68.2,30.11,WSW,253,0.0,2.0,94,0.00,,,0.00,meteohub,2013-09-12 08:33:00,
2013-09-12 04:38:00,70.0,68.2,30.12,WSW,248,0.0,2.0,94,0.00,,,0.00,meteohub,2013-09-12 08:38:00,
2013-09-12 04:43:00,70.0,68.2,30.11,WSW,248,0.0,2.0,94,0.00,,,0.00,meteohub,2013-09-12 08:43:00,
2013-09-12 04:48:00,70.0,68.2,30.11,WSW,248,0.0,1.0,94,0.00,,,0.00,meteohub,2013-09-12 08:48:00,
2013-09-12 04:53:00,70.2,68.4,30.11,WSW,247,0.0,1.0,94,0.00,,,0.00,meteohub,2013-09-12 08:53:00,
2013-09-12 04:58:00,70.2,68.4,30.11,WSW,248,0.0,1.0,94,0.00,,,0.00,meteohub,2013-09-12 08:58:00,
2013-09-12 05:03:00,70.0,68.2,30.11,SSW,206,0.0,1.0,94,0.00,,,0.00,meteohub,2013-09-12 09:03:00,
2013-09-12 05:08:00,70.2,68.4,30.11,ESE,123,0.0,1.0,94,0.00,,,0.00,meteohub,2013-09-12 09:08:00,
2013-09-12 05:13:00,70.2,68.4,30.11,ESE,120,0.0,1.0,94,0.00,,,0.00,meteohub,2013-09-12 09:13:00,
2013-09-12 05:18:00,70.0,68.2,30.11,ESE,123,0.0,1.0,94,0.00,,,0.00,meteohub,2013-09-12 09:18:00,
2013-09-12 05:23:00,70.0,68.2,30.11,SW,224,0.0,1.0,94,0.00,,,0.00,meteohub,2013-09-12 09:23:00,
2013-09-12 05:29:00,70.0,68.2,30.11,SW,224,1.0,1.0,94,0.00,,,0.00,meteohub,2013-09-12 09:29:00,
2013-09-12 05:34:00,70.0,68.2,30.11,ESE,120,1.0,1.0,94,0.00,,,0.00,meteohub,2013-09-12 09:34:00,
2013-09-12 05:39:00,70.0,68.2,30.11,ESE,120,0.0,1.0,94,0.00,,,0.00,meteohub,2013-09-12 09:39:00,
2013-09-12 05:44:00,70.0,68.2,30.11,ESE,123,0.0,1.0,94,0.00,,,0.00,meteohub,2013-09-12 09:44:00,
2013-09-12 05:49:00,70.0,68.2,30.11,ESE,123,0.0,1.0,94,0.00,,,0.00,meteohub,2013-09-12 09:49:00,
2013-09-12 05:54:00,69.8,68.0,30.11,SW,221,0.0,1.0,94,0.00,,,0.00,meteohub,2013-09-12 09:54:00,
2013-09-12 05:59:00,69.6,67.8,30.11,SW,221,0.0,1.0,94,0.00,,,0.00,meteohub,2013-09-12 09:59:00,
2013-09-12 06:04:00,69.6,67.8,30.10,SSW,205,0.0,1.0,94,0.00,,,0.00,meteohub,2013-09-12 10:04:00,
2013-09-12 06:09:00,69.6,67.8,30.11,South,188,0.0,1.0,94,0.00,,,0.00,meteohub,2013-09-12 10:09:00,
2013-09-12 06:14:00,69.6,67.8,30.10,South,176,0.0,1.0,94,0.00,,,0.00,meteohub,2013-09-12 10:14:00,
2013-09-12 06:19:00,69.6,67.8,30.10,West,280,0.0,1.0,94,0.00,,,0.00,meteohub,2013-09-12 10:19:00,
2013-09-12 06:24:00,69.6,67.8,30.10,ESE,112,0.0,1.0,94,0.00,,,0.00,meteohub,2013-09-12 10:24:00,
2013-09-12 06:29:00,69.6,67.8,30.10,ESE,114,0.0,1.0,94,0.00,,,0.00,meteohub,2013-09-12 10:29:00,
2013-09-12 06:34:00,69.6,67.8,30.10,ESE,115,0.0,1.0,94,0.00,,,0.00,meteohub,2013-09-12 10:34:00,
2013-09-12 06:39:00,69.6,67.8,30.10,WSW,243,0.0,1.0,94,0.00,,,0.00,meteohub,2013-09-12 10:39:00,
2013-09-12 06:44:00,69.4,67.6,30.10,WSW,243,0.0,1.0,94,0.00,,,0.00,meteohub,2013-09-12 10:44:00,
2013-09-12 06:49:00,69.6,67.8,30.10,West,266,0.0,1.0,94,0.00,,,0.00,meteohub,2013-09-12 10:49:00,
2013-09-12 06:54:00,69.6,67.8,30.10,SE,142,0.0,2.0,94,0.00,,,0.00,meteohub,2013-09-12 10:54:00,
2013-09-12 06:59:00,69.6,67.8,30.10,SE,142,0.0,2.0,94,0.00,,,0.00,meteohub,2013-09-12 10:59:00,
2013-09-12 07:04:00,69.6,67.8,30.10,ESE,121,0.0,2.0,94,0.00,,,0.00,meteohub,2013-09-12 11:04:00,
2013-09-12 07:09:00,69.6,67.8,30.10,ESE,122,0.0,2.0,94,0.00,,,0.00,meteohub,2013-09-12 11:09:00,
2013-09-12 07:14:00,69.8,68.0,30.10,SSW,200,0.0,2.0,94,0.00,,,0.00,meteohub,2013-09-12 11:14:00,
2013-09-12 07:19:00,70.0,68.2,30.10,SE,128,2.0,2.0,94,0.00,,,0.00,meteohub,2013-09-12 11:19:00,
2013-09-12 07:24:00,70.0,68.2,30.10,SSE,158,0.0,2.0,94,0.00,,,0.00,meteohub,2013-09-12 11:24:00,
2013-09-12 07:30:00,70.0,68.2,30.10,SSW,207,1.0,2.0,94,0.00,,,0.00,meteohub,2013-09-12 11:30:00,
2013-09-12 07:35:00,70.2,68.4,30.10,SE,136,1.0,2.0,94,0.00,,,0.00,meteohub,2013-09-12 11:35:00,
2013-09-12 07:40:00,70.2,68.4,30.10,West,273,0.0,2.0,94,0.00,,,0.00,meteohub,2013-09-12 11:40:00,
2013-09-12 07:45:00,70.3,68.5,30.10,WSW,246,0.0,2.0,94,0.00,,,0.00,meteohub,2013-09-12 11:45:00,
2013-09-12 07:50:00,70.3,68.5,30.10,West,266,0.0,3.0,94,0.00,,,0.00,meteohub,2013-09-12 11:50:00,
2013-09-12 07:55:00,70.3,68.5,30.09,WSW,246,0.0,3.0,94,0.00,,,0.00,meteohub,2013-09-12 11:55:00,
2013-09-12 08:00:00,70.5,68.7,30.09,WNW,287,0.0,3.0,94,0.00,,,0.00,meteohub,2013-09-12 12:00:00,
2013-09-12 08:05:00,70.5,68.7,30.09,West,270,0.0,3.0,94,0.00,,,0.00,meteohub,2013-09-12 12:05:00,
2013-09-12 08:10:00,70.7,68.9,30.09,SSW,194,1.0,3.0,94,0.00,,,0.00,meteohub,2013-09-12 12:10:00,
2013-09-12 08:15:00,70.7,68.9,30.09,South,183,0.0,4.0,94,0.00,,,0.00,meteohub,2013-09-12 12:15:00,
2013-09-12 08:20:00,70.9,69.1,30.09,SE,139,1.0,4.0,94,0.00,,,0.00,meteohub,2013-09-12 12:20:00,
2013-09-12 08:25:00,70.9,69.1,30.09,WSW,256,2.0,4.0,94,0.00,,,0.00,meteohub,2013-09-12 12:25:00,
2013-09-12 08:30:00,71.1,69.3,30.08,West,277,1.0,3.0,94,0.00,,,0.00,meteohub,2013-09-12 12:30:00,
2013-09-12 08:35:00,71.1,69.3,30.08,SSE,158,1.0,7.0,94,0.00,,,0.00,meteohub,2013-09-12 12:35:00,
2013-09-12 08:40:00,71.2,69.4,30.08,WNW,288,0.0,7.0,94,0.00,,,0.00,meteohub,2013-09-12 12:40:00,
2013-09-12 08:45:00,71.4,69.6,30.08,West,267,1.0,4.0,94,0.00,,,0.00,meteohub,2013-09-12 12:45:00,
2013-09-12 08:50:00,71.6,69.4,30.09,NE,39,0.0,4.0,93,0.00,,,0.00,meteohub,2013-09-12 12:50:00,
2013-09-12 08:55:00,71.8,69.6,30.08,ESE,102,0.0,4.0,93,0.00,,,0.00,meteohub,2013-09-12 12:55:00,
2013-09-12 09:00:00,72.0,69.8,30.09,West,276,0.0,3.0,93,0.00,,,0.00,meteohub,2013-09-12 13:00:00,
2013-09-12 09:05:00,72.3,69.8,30.08,SE,142,0.0,4.0,92,0.00,,,0.00,meteohub,2013-09-12 13:05:00,
2013-09-12 09:10:00,72.9,70.3,30.08,West,264,0.0,4.0,92,0.00,,,0.00,meteohub,2013-09-12 13:10:00,
2013-09-12 09:15:00,73.2,70.5,30.08,WSW,246,0.0,4.0,91,0.00,,,0.00,meteohub,2013-09-12 13:15:00,
2013-09-12 09:20:00,73.6,70.7,30.08,SSE,158,0.0,4.0,91,0.00,,,0.00,meteohub,2013-09-12 13:20:00,
2013-09-12 09:25:00,73.9,70.9,30.08,ESE,106,2.0,4.0,90,0.00,,,0.00,meteohub,2013-09-12 13:25:00,
2013-09-12 09:30:00,74.5,71.4,30.08,SE,132,0.0,5.0,90,0.00,,,0.00,meteohub,2013-09-12 13:30:00,
2013-09-12 09:35:00,74.8,71.4,30.08,SW,225,3.0,5.0,89,0.00,,,0.00,meteohub,2013-09-12 13:35:00,
2013-09-12 09:40:00,75.2,71.4,30.08,WSW,250,2.0,5.0,88,0.00,,,0.00,meteohub,2013-09-12 13:40:00,
2013-09-12 09:45:00,75.4,71.6,30.08,West,262,0.0,4.0,88,0.00,,,0.00,meteohub,2013-09-12 13:45:00,
2013-09-12 09:50:00,75.6,71.8,30.08,ESE,112,2.0,4.0,88,0.00,,,0.00,meteohub,2013-09-12 13:50:00,
2013-09-12 09:55:00,75.9,71.8,30.07,WSW,238,0.0,4.0,87,0.00,,,0.00,meteohub,2013-09-12 13:55:00,
2013-09-12 10:00:00,76.3,72.1,30.07,WSW,240,1.0,4.0,87,0.00,,,0.00,meteohub,2013-09-12 14:00:00,
2013-09-12 10:05:00,76.3,72.1,30.07,WSW,248,1.0,4.0,87,0.00,,,0.00,meteohub,2013-09-12 14:05:00,
2013-09-12 10:10:00,76.3,71.8,30.07,SW,221,0.0,4.0,86,0.00,,,0.00,meteohub,2013-09-12 14:10:00,
2013-09-12 10:15:00,76.3,71.8,30.07,SE,145,1.0,4.0,86,0.00,,,0.00,meteohub,2013-09-12 14:15:00,
2013-09-12 10:20:00,76.3,71.8,30.07,WSW,253,1.0,6.0,86,0.00,,,0.00,meteohub,2013-09-12 14:20:00,
2013-09-12 10:25:00,76.3,71.8,30.07,NNE,30,1.0,6.0,86,0.00,,,0.00,meteohub,2013-09-12 14:25:00,
2013-09-12 10:30:00,76.3,71.8,30.07,North,353,0.0,4.0,86,0.00,,,0.00,meteohub,2013-09-12 14:30:00,
2013-09-12 10:35:00,76.5,72.0,30.06,SSE,161,5.0,5.0,86,0.00,,,0.00,meteohub,2013-09-12 14:35:00,
2013-09-12 10:40:00,76.8,72.0,30.06,WNW,294,2.0,5.0,85,0.00,,,0.00,meteohub,2013-09-12 14:40:00,
2013-09-12 10:45:00,76.8,72.0,30.06,SW,215,1.0,5.0,85,0.00,,,0.00,meteohub,2013-09-12 14:45:00,
2013-09-12 10:50:00,76.8,72.0,30.06,SE,142,0.0,5.0,85,0.00,,,0.00,meteohub,2013-09-12 14:50:00,
2013-09-12 10:55:00,77.2,72.3,30.06,West,276,1.0,5.0,85,0.00,,,0.00,meteohub,2013-09-12 14:55:00,
2013-09-12 11:00:00,77.4,72.1,30.06,WSW,243,2.0,5.0,84,0.00,,,0.00,meteohub,2013-09-12 15:00:00,
2013-09-12 11:05:00,77.7,72.1,30.05,WSW,252,2.0,5.0,83,0.00,,,0.00,meteohub,2013-09-12 15:05:00,
2013-09-12 11:10:00,77.9,72.7,30.06,WNW,285,1.0,5.0,84,0.00,,,0.00,meteohub,2013-09-12 15:10:00,
2013-09-12 11:16:00,77.9,72.7,30.05,SSW,207,1.0,5.0,84,0.00,,,0.00,meteohub,2013-09-12 15:16:00,
2013-09-12 11:21:00,78.1,72.5,30.05,South,177,1.0,5.0,83,0.00,,,0.00,meteohub,2013-09-12 15:21:00,
2013-09-12 11:26:00,77.9,72.3,30.05,WSW,256,1.0,6.0,83,0.00,,,0.00,meteohub,2013-09-12 15:26:00,
2013-09-12 11:31:00,77.7,72.5,30.05,West,274,2.0,6.0,84,0.00,,,0.00,meteohub,2013-09-12 15:31:00,
2013-09-12 11:36:00,78.1,72.9,30.05,WSW,253,4.0,4.0,84,0.00,,,0.00,meteohub,2013-09-12 15:36:00,
2013-09-12 11:41:00,78.3,72.7,30.05,WNW,296,0.0,4.0,83,0.00,,,0.00,meteohub,2013-09-12 15:41:00,
2013-09-12 11:46:00,78.6,73.0,30.04,SE,142,2.0,5.0,83,0.00,,,0.00,meteohub,2013-09-12 15:46:00,
2013-09-12 11:51:00,79.0,73.4,30.04,WSW,248,2.0,6.0,83,0.00,,,0.00,meteohub,2013-09-12 15:51:00,
2013-09-12 11:56:00,79.0,73.4,30.04,SE,135,1.0,7.0,83,0.00,,,0.00,meteohub,2013-09-12 15:56:00,
2013-09-12 12:01:00,79.3,73.4,30.04,WNW,287,5.0,7.0,82,0.00,,,0.00,meteohub,2013-09-12 16:01:00,
2013-09-12 12:06:00,79.2,73.2,30.04,West,267,1.0,7.0,82,0.00,,,0.00,meteohub,2013-09-12 16:06:00,
2013-09-12 12:11:00,79.2,72.9,30.04,WSW,241,0.0,6.0,81,0.00,,,0.00,meteohub,2013-09-12 16:11:00,
2013-09-12 12:16:00,79.5,73.6,30.04,WSW,249,2.0,6.0,82,0.00,,,0.00,meteohub,2013-09-12 16:16:00,
2013-09-12 12:21:00,79.9,73.2,30.03,South,170,3.0,5.0,80,0.00,,,0.00,meteohub,2013-09-12 16:21:00,
2013-09-12 12:26:00,79.7,73.4,30.03,WNW,285,1.0,7.0,81,0.00,,,0.00,meteohub,2013-09-12 16:26:00,
2013-09-12 12:31:00,79.5,73.2,30.03,East,96,2.0,7.0,81,0.00,,,0.00,meteohub,2013-09-12 16:31:00,
2013-09-12 12:36:00,79.3,73.4,30.03,WSW,252,3.0,5.0,82,0.00,,,0.00,meteohub,2013-09-12 16:36:00,
2013-09-12 12:41:00,79.3,73.0,30.02,WSW,252,4.0,7.0,81,0.00,,,0.00,meteohub,2013-09-12 16:41:00,
2013-09-12 12:46:00,79.3,73.0,30.02,East,96,3.0,7.0,81,0.00,,,0.00,meteohub,2013-09-12 16:46:00,
2013-09-12 12:51:00,79.9,73.6,30.02,WSW,256,1.0,7.0,81,0.00,,,0.00,meteohub,2013-09-12 16:51:00,
2013-09-12 12:56:00,79.7,73.4,30.02,East,99,2.0,5.0,81,0.00,,,0.00,meteohub,2013-09-12 16:56:00,
2013-09-12 13:01:00,80.1,73.8,30.02,SE,129,1.0,5.0,81,0.00,,,0.00,meteohub,2013-09-12 17:01:00,
2013-09-12 13:06:00,80.2,73.6,30.02,NNE,15,3.0,6.0,80,0.00,,,0.00,meteohub,2013-09-12 17:06:00,
2013-09-12 13:11:00,80.8,73.6,30.02,ESE,110,0.0,6.0,79,0.00,,,0.00,meteohub,2013-09-12 17:11:00,
2013-09-12 13:16:00,80.8,73.6,30.02,NW,308,1.0,5.0,79,0.00,,,0.00,meteohub,2013-09-12 17:16:00,
2013-09-12 13:21:00,80.8,73.6,30.02,SSE,163,2.0,6.0,79,0.00,,,0.00,meteohub,2013-09-12 17:21:00,
2013-09-12 13:26:00,81.0,73.8,30.01,SSE,167,0.0,6.0,79,0.00,,,0.00,meteohub,2013-09-12 17:26:00,
2013-09-12 13:31:00,81.0,73.8,30.01,SW,235,3.0,4.0,79,0.00,,,0.00,meteohub,2013-09-12 17:31:00,
2013-09-12 13:36:00,81.0,73.8,30.01,NNW,342,3.0,4.0,79,0.00,,,0.00,meteohub,2013-09-12 17:36:00,
2013-09-12 13:42:00,81.0,73.8,30.01,SE,135,2.0,6.0,79,0.00,,,0.00,meteohub,2013-09-12 17:42:00,
2013-09-12 13:47:00,81.0,73.4,30.00,South,188,4.0,6.0,78,0.00,,,0.00,meteohub,2013-09-12 17:47:00,
2013-09-12 13:52:00,81.1,73.9,30.00,SE,125,1.0,7.0,79,0.00,,,0.00,meteohub,2013-09-12 17:52:00,
2013-09-12 13:57:00,81.7,74.1,29.99,ESE,115,1.0,7.0,78,0.00,,,0.00,meteohub,2013-09-12 17:57:00,
2013-09-12 14:02:00,81.9,74.3,29.99,NNE,13,1.0,5.0,78,0.00,,,0.00,meteohub,2013-09-12 18:02:00,
2013-09-12 14:07:00,82.2,74.7,29.99,WNW,287,2.0,6.0,78,0.00,,,0.00,meteohub,2013-09-12 18:07:00,
2013-09-12 14:12:00,81.9,73.6,29.99,WSW,245,3.0,9.0,76,0.00,,,0.00,meteohub,2013-09-12 18:12:00,
2013-09-12 14:17:00,81.1,73.6,29.98,WNW,302,1.0,9.0,78,0.00,,,0.00,meteohub,2013-09-12 18:17:00,
2013-09-12 14:22:00,81.3,73.8,29.98,ESE,117,2.0,9.0,78,0.00,,,0.00,meteohub,2013-09-12 18:22:00,
2013-09-12 14:27:00,81.3,73.8,29.98,WNW,283,3.0,9.0,78,0.00,,,0.00,meteohub,2013-09-12 18:27:00,
2013-09-12 14:32:00,81.1,73.6,29.97,SSE,158,4.0,9.0,78,0.00,,,0.00,meteohub,2013-09-12 18:32:00,
2013-09-12 14:37:00,81.1,73.6,29.97,WSW,250,6.0,9.0,78,0.00,,,0.00,meteohub,2013-09-12 18:37:00,
2013-09-12 14:42:00,80.8,73.2,29.97,West,279,2.0,7.0,78,0.00,,,0.00,meteohub,2013-09-12 18:42:00,
2013-09-12 14:47:00,80.2,73.0,29.96,SSE,160,0.0,7.0,79,0.00,,,0.00,meteohub,2013-09-12 18:47:00,
2013-09-12 14:52:00,79.9,72.9,29.96,West,265,0.0,6.0,79,0.00,,,0.00,meteohub,2013-09-12 18:52:00,
2013-09-12 14:57:00,79.5,72.9,29.96,NNW,346,3.0,6.0,80,0.00,,,0.00,meteohub,2013-09-12 18:57:00,
2013-09-12 15:02:00,79.0,72.3,29.95,WNW,300,1.0,6.0,80,0.00,,,0.00,meteohub,2013-09-12 19:02:00,
2013-09-12 15:07:00,78.4,72.1,29.95,SW,223,2.0,6.0,81,0.00,,,0.00,meteohub,2013-09-12 19:07:00,
2013-09-12 15:12:00,77.9,72.0,29.95,East,80,0.0,6.0,82,0.00,,,0.00,meteohub,2013-09-12 19:12:00,
2013-09-12 15:17:00,77.5,72.0,29.95,WNW,291,1.0,8.0,83,0.00,,,0.00,meteohub,2013-09-12 19:17:00,
2013-09-12 15:22:00,77.4,71.8,29.94,WSW,241,6.0,9.0,83,0.00,,,0.00,meteohub,2013-09-12 19:22:00,
2013-09-12 15:27:00,77.2,71.6,29.94,WNW,284,4.0,9.0,83,0.00,,,0.00,meteohub,2013-09-12 19:27:00,
2013-09-12 15:32:00,77.2,72.0,29.94,West,278,1.0,8.0,84,0.00,,,0.00,meteohub,2013-09-12 19:32:00,
2013-09-12 15:37:00,76.8,71.6,29.94,WNW,300,2.0,8.0,84,0.00,,,0.00,meteohub,2013-09-12 19:37:00,
2013-09-12 15:42:00,76.5,71.6,29.94,SW,221,1.0,8.0,85,0.00,,,0.00,meteohub,2013-09-12 19:42:00,
2013-09-12 15:47:00,76.5,71.6,29.93,ESE,105,1.0,8.0,85,0.00,,,0.00,meteohub,2013-09-12 19:47:00,
2013-09-12 15:52:00,76.3,71.4,29.93,SSW,212,1.0,7.0,85,0.00,,,0.00,meteohub,2013-09-12 19:52:00,
2013-09-12 15:57:00,75.9,71.1,29.93,West,267,0.0,7.0,85,0.00,,,0.00,meteohub,2013-09-12 19:57:00,
2013-09-12 16:02:00,75.7,71.2,29.93,West,275,2.0,7.0,86,0.00,,,0.00,meteohub,2013-09-12 20:02:00,
2013-09-12 16:07:00,75.6,71.4,29.93,ESE,105,0.0,8.0,87,0.00,,,0.00,meteohub,2013-09-12 20:07:00,
2013-09-12 16:12:00,75.4,71.2,29.93,ENE,61,2.0,8.0,87,0.00,,,0.00,meteohub,2013-09-12 20:12:00,
2013-09-12 16:17:00,75.4,71.2,29.92,SSE,149,1.0,8.0,87,0.00,,,0.00,meteohub,2013-09-12 20:17:00,
2013-09-12 16:22:00,75.4,71.2,29.92,WSW,255,1.0,5.0,87,0.00,,,0.00,meteohub,2013-09-12 20:22:00,
2013-09-12 16:27:00,75.6,71.4,29.92,NNE,25,2.0,5.0,87,0.00,,,0.00,meteohub,2013-09-12 20:27:00,
2013-09-12 16:32:00,75.4,71.2,29.92,WSW,252,1.0,7.0,87,0.00,,,0.00,meteohub,2013-09-12 20:32:00,
2013-09-12 16:37:00,75.4,71.2,29.91,WNW,296,1.0,7.0,87,0.00,,,0.00,meteohub,2013-09-12 20:37:00,
2013-09-12 16:42:00,75.2,71.1,29.91,WNW,289,1.0,7.0,87,0.00,,,0.00,meteohub,2013-09-12 20:42:00,
2013-09-12 16:47:00,75.2,71.1,29.91,ENE,71,2.0,6.0,87,0.00,,,0.00,meteohub,2013-09-12 20:47:00,
2013-09-12 16:52:00,75.0,70.9,29.91,ENE,72,2.0,5.0,87,0.00,,,0.00,meteohub,2013-09-12 20:52:00,
2013-09-12 16:57:00,75.0,70.9,29.91,SSE,158,1.0,4.0,87,0.00,,,0.00,meteohub,2013-09-12 20:57:00,
2013-09-12 17:02:00,74.8,70.7,29.91,WSW,245,2.0,6.0,87,0.00,,,0.00,meteohub,2013-09-12 21:02:00,
2013-09-12 17:07:00,74.7,70.5,29.91,SE,128,3.0,8.0,87,0.00,,,0.00,meteohub,2013-09-12 21:07:00,
2013-09-12 17:12:00,74.7,70.9,29.91,West,276,1.0,8.0,88,0.00,,,0.00,meteohub,2013-09-12 21:12:00,
2013-09-12 17:17:00,74.7,70.9,29.91,WNW,297,1.0,6.0,88,0.00,,,0.00,meteohub,2013-09-12 21:17:00,
2013-09-12 17:22:00,74.5,70.7,29.91,WSW,243,0.0,3.0,88,0.00,,,0.00,meteohub,2013-09-12 21:22:00,
2013-09-12 17:27:00,74.5,70.7,29.91,WSW,252,0.0,5.0,88,0.00,,,0.00,meteohub,2013-09-12 21:27:00,
2013-09-12 17:32:00,74.3,70.2,29.91,WNW,302,1.0,5.0,87,0.00,,,0.00,meteohub,2013-09-12 21:32:00,
2013-09-12 17:37:00,74.1,70.3,29.91,West,270,1.0,4.0,88,0.00,,,0.00,meteohub,2013-09-12 21:37:00,
2013-09-12 17:42:00,73.9,70.2,29.91,West,266,2.0,4.0,88,0.00,,,0.00,meteohub,2013-09-12 21:42:00,
2013-09-12 17:47:00,73.9,70.2,29.91,West,271,0.0,4.0,88,0.00,,,0.00,meteohub,2013-09-12 21:47:00,
2013-09-12 17:52:00,73.8,70.0,29.91,NW,325,0.0,5.0,88,0.00,,,0.00,meteohub,2013-09-12 21:52:00,
2013-09-12 17:57:00,73.8,70.0,29.91,WNW,284,2.0,5.0,88,0.00,,,0.00,meteohub,2013-09-12 21:57:00,
2013-09-12 18:02:00,73.8,70.0,29.91,East,86,0.0,4.0,88,0.00,,,0.00,meteohub,2013-09-12 22:02:00,
2013-09-12 18:07:00,73.6,69.8,29.90,West,267,0.0,3.0,88,0.00,,,0.00,meteohub,2013-09-12 22:07:00,
2013-09-12 18:12:00,73.6,70.2,29.91,WSW,256,1.0,4.0,89,0.00,,,0.00,meteohub,2013-09-12 22:12:00,
2013-09-12 18:17:00,73.2,69.8,29.91,SSE,149,0.0,4.0,89,0.00,,,0.00,meteohub,2013-09-12 22:17:00,
2013-09-12 18:22:00,73.2,69.8,29.90,WSW,246,1.0,4.0,89,0.00,,,0.00,meteohub,2013-09-12 22:22:00,
2013-09-12 18:27:00,73.0,69.6,29.90,WSW,253,2.0,6.0,89,0.00,,,0.00,meteohub,2013-09-12 22:27:00,
2013-09-12 18:32:00,73.0,69.6,29.90,WSW,246,0.0,6.0,89,0.00,,,0.00,meteohub,2013-09-12 22:32:00,
2013-09-12 18:37:00,72.9,69.8,29.90,West,281,1.0,6.0,90,0.00,,,0.00,meteohub,2013-09-12 22:37:00,
2013-09-12 18:42:00,72.7,69.6,29.90,West,271,2.0,4.0,90,0.00,,,0.00,meteohub,2013-09-12 22:42:00,
2013-09-12 18:47:00,72.7,69.6,29.89,SW,229,2.0,4.0,90,0.00,,,0.00,meteohub,2013-09-12 22:47:00,
2013-09-12 18:52:00,72.5,69.4,29.89,WNW,290,1.0,6.0,90,0.00,,,0.00,meteohub,2013-09-12 22:52:00,
2013-09-12 18:57:00,72.3,69.3,29.89,NW,308,1.0,6.0,90,0.00,,,0.00,meteohub,2013-09-12 22:57:00,
2013-09-12 19:02:00,72.3,69.3,29.89,NW,319,1.0,6.0,90,0.00,,,0.00,meteohub,2013-09-12 23:02:00,
2013-09-12 19:07:00,72.3,69.3,29.89,East,98,0.0,4.0,90,0.00,,,0.00,meteohub,2013-09-12 23:07:00,
2013-09-12 19:12:00,72.1,69.4,29.89,WNW,300,1.0,4.0,91,0.00,,,0.00,meteohub,2013-09-12 23:12:00,
2013-09-12 19:17:00,72.1,69.4,29.89,NE,50,1.0,3.0,91,0.00,,,0.00,meteohub,2013-09-12 23:17:00,
2013-09-12 19:22:00,72.1,69.4,29.89,ESE,109,0.0,3.0,91,0.00,,,0.00,meteohub,2013-09-12 23:22:00,
2013-09-12 19:27:00,72.1,69.4,29.89,WNW,284,0.0,3.0,91,0.00,,,0.00,meteohub,2013-09-12 23:27:00,
2013-09-12 19:32:00,72.1,69.4,29.89,ESE,105,0.0,3.0,91,0.00,,,0.00,meteohub,2013-09-12 23:32:00,
2013-09-12 19:37:00,72.1,69.4,29.88,ESE,117,0.0,3.0,91,0.00,,,0.00,meteohub,2013-09-12 23:37:00,
2013-09-12 19:43:00,72.1,69.4,29.88,East,95,0.0,3.0,91,0.00,,,0.00,meteohub,2013-09-12 23:43:00,
2013-09-12 19:48:00,72.1,69.4,29.89,WNW,286,0.0,3.0,91,0.00,,,0.00,meteohub,2013-09-12 23:48:00,
2013-09-12 19:53:00,72.1,69.4,29.89,East,91,2.0,3.0,91,0.00,,,0.00,meteohub,2013-09-12 23:53:00,
2013-09-12 19:58:00,72.1,69.4,29.89,WSW,255,1.0,3.0,91,0.00,,,0.00,meteohub,2013-09-12 23:58:00,
2013-09-12 20:03:00,72.0,69.3,29.89,ESE,102,0.0,3.0,91,0.00,,,0.00,meteohub,2013-09-13 00:03:00,
2013-09-12 20:08:00,72.0,69.3,29.88,NNE,19,0.0,3.0,91,0.00,,,0.00,meteohub,2013-09-13 00:08:00,
2013-09-12 20:13:00,72.0,69.3,29.88,ENE,78,3.0,3.0,91,0.00,,,0.00,meteohub,2013-09-13 00:13:00,
2013-09-12 20:18:00,72.0,69.3,29.89,ENE,58,1.0,4.0,91,0.00,,,0.00,meteohub,2013-09-13 00:18:00,
2013-09-12 20:23:00,71.8,69.1,29.88,NNE,20,0.0,4.0,91,0.04,,,0.04,meteohub,2013-09-13 00:23:00,
2013-09-12 20:28:00,71.6,69.1,29.89,ENE,63,1.0,4.0,92,0.14,,,0.14,meteohub,2013-09-13 00:28:00,
2013-09-12 20:33:00,71.6,69.1,29.89,ENE,77,0.0,3.0,92,0.16,,,0.16,meteohub,2013-09-13 00:33:00,
2013-09-12 20:38:00,71.4,68.9,29.88,WNW,288,1.0,3.0,92,0.18,,,0.18,meteohub,2013-09-13 00:38:00,
2013-09-12 20:43:00,71.1,68.5,29.89,SSE,158,1.0,3.0,92,0.19,,,0.19,meteohub,2013-09-13 00:43:00,
2013-09-12 20:48:00,70.9,68.4,29.89,SE,137,0.0,3.0,92,0.23,,,0.23,meteohub,2013-09-13 00:48:00,
2013-09-12 20:53:00,70.7,68.2,29.89,SSW,197,1.0,2.0,92,0.27,,,0.27,meteohub,2013-09-13 00:53:00,
2013-09-12 20:58:00,70.5,68.4,29.90,NW,321,1.0,2.0,93,0.33,,,0.33,meteohub,2013-09-13 00:58:00,
2013-09-12 21:03:00,70.5,68.4,29.91,West,267,1.0,2.0,93,0.34,,,0.34,meteohub,2013-09-13 01:03:00,
2013-09-12 21:08:00,70.0,67.5,29.91,NW,304,1.0,3.0,92,0.34,,,0.34,meteohub,2013-09-13 01:08:00,
2013-09-12 21:13:00,69.4,67.1,29.90,North,351,1.0,6.0,92,0.36,,,0.36,meteohub,2013-09-13 01:13:00,
2013-09-12 21:18:00,69.1,66.7,29.89,SSE,148,1.0,6.0,92,0.38,,,0.38,meteohub,2013-09-13 01:18:00,
2013-09-12 21:23:00,68.9,66.7,29.89,ESE,123,0.0,6.0,93,0.28,,,0.41,meteohub,2013-09-13 01:23:00,
2013-09-12 21:28:00,68.7,66.6,29.89,ESE,123,0.0,3.0,93,0.29,,,0.43,meteohub,2013-09-13 01:28:00,
2013-09-12 21:33:00,68.7,66.6,29.89,ESE,123,0.0,1.0,93,0.27,,,0.43,meteohub,2013-09-13 01:33:00,
2013-09-12 21:38:00,68.7,66.6,29.88,ESE,122,0.0,1.0,93,0.24,,,0.43,meteohub,2013-09-13 01:38:00,
2013-09-12 21:43:00,68.7,66.6,29.88,ESE,123,0.0,1.0,93,0.24,,,0.44,meteohub,2013-09-13 01:43:00,
2013-09-12 21:48:00,68.5,66.4,29.88,ESE,123,0.0,1.0,93,0.20,,,0.44,meteohub,2013-09-13 01:48:00,
2013-09-12 21:53:00,68.5,66.4,29.88,ESE,123,0.0,1.0,93,0.15,,,0.45,meteohub,2013-09-13 01:53:00,
2013-09-12 21:58:00,68.4,66.2,29.88,ESE,123,0.0,1.0,93,0.12,,,0.45,meteohub,2013-09-13 01:58:00,
2013-09-12 22:03:00,68.4,66.2,29.88,ESE,122,0.0,0.0,93,0.11,,,0.45,meteohub,2013-09-13 02:03:00,
2013-09-12 22:08:00,68.4,66.2,29.88,SE,124,0.0,0.0,93,0.12,,,0.47,meteohub,2013-09-13 02:08:00,
2013-09-12 22:13:00,68.4,66.2,29.88,SE,126,0.0,0.0,93,0.11,,,0.47,meteohub,2013-09-13 02:13:00,
2013-09-12 22:18:00,68.4,66.2,29.88,SW,215,0.0,0.0,93,0.08,,,0.48,meteohub,2013-09-13 02:18:00,
2013-09-12 22:23:00,68.4,66.2,29.88,SSW,207,0.0,1.0,93,0.07,,,0.49,meteohub,2013-09-13 02:23:00,
2013-09-12 22:28:00,68.4,66.6,29.88,SSW,210,0.0,1.0,94,0.06,,,0.49,meteohub,2013-09-13 02:28:00,
2013-09-12 22:33:00,68.2,66.4,29.88,ESE,122,0.0,1.0,94,0.06,,,0.49,meteohub,2013-09-13 02:33:00,
2013-09-12 22:38:00,68.2,66.4,29.88,SE,142,0.0,2.0,94,0.06,,,0.49,meteohub,2013-09-13 02:38:00,
2013-09-12 22:43:00,68.2,66.4,29.88,SE,142,0.0,3.0,94,0.05,,,0.49,meteohub,2013-09-13 02:43:00,
2013-09-12 22:48:00,68.2,66.4,29.87,SE,126,2.0,3.0,94,0.05,,,0.49,meteohub,2013-09-13 02:48:00,
2013-09-12 22:53:00,68.2,66.4,29.86,SE,140,0.0,3.0,94,0.04,,,0.49,meteohub,2013-09-13 02:53:00,
2013-09-12 22:58:00,68.2,66.4,29.87,SE,134,2.0,3.0,94,0.04,,,0.49,meteohub,2013-09-13 02:58:00,
2013-09-12 23:04:00,68.2,66.4,29.87,SSE,153,0.0,2.0,94,0.03,,,0.49,meteohub,2013-09-13 03:04:00,
2013-09-12 23:09:00,68.2,66.4,29.87,SSE,153,0.0,2.0,94,0.02,,,0.49,meteohub,2013-09-13 03:09:00,
2013-09-12 23:14:00,68.2,66.4,29.87,SW,235,0.0,2.0,94,0.01,,,0.49,meteohub,2013-09-13 03:14:00,
2013-09-12 23:19:00,68.2,66.4,29.88,SW,235,0.0,1.0,94,0.01,,,0.49,meteohub,2013-09-13 03:19:00,
2013-09-12 23:24:00,68.2,66.4,29.87,SE,141,0.0,1.0,94,0.00,,,0.49,meteohub,2013-09-13 03:24:00,
2013-09-12 23:29:00,68.2,66.4,29.88,SE,137,0.0,1.0,94,0.00,,,0.49,meteohub,2013-09-13 03:29:00,
2013-09-12 23:34:00,68.2,66.4,29.87,SSE,159,0.0,2.0,94,0.00,,,0.49,meteohub,2013-09-13 03:34:00,
2013-09-12 23:39:00,68.2,66.4,29.87,West,269,1.0,3.0,94,0.00,,,0.49,meteohub,2013-09-13 03:39:00,
2013-09-12 23:44:00,68.2,66.4,29.86,South,183,0.0,3.0,94,0.00,,,0.49,meteohub,2013-09-13 03:44:00,
2013-09-12 23:49:00,68.2,66.4,29.87,South,183,0.0,3.0,94,0.00,,,0.49,meteohub,2013-09-13 03:49:00,
2013-09-12 23:54:00,68.2,66.4,29.87,WNW,288,2.0,2.0,94,0.00,,,0.49,meteohub,2013-09-13 03:54:00,
2013-09-12 23:59:00,68.2,66.4,29.86,ESE,110,0.0,2.0,94,0.00,,,0.49,meteohub,2013-09-13 03:59:00,